createdAt,value
2019-01-14T00:00:14.891Z,0
2019-01-14T00:01:14.648Z,0
2019-01-14T00:02:14.655Z,0
2019-01-14T00:03:14.421Z,0
2019-01-14T00:04:14.969Z,0
2019-01-14T00:05:14.525Z,0
2019-01-14T00:06:16.971Z,0
2019-01-14T00:07:15.003Z,0
2019-01-14T00:08:15.037Z,0
2019-01-14T00:09:15.052Z,0
2019-01-14T00:10:14.812Z,0
2019-01-14T00:11:14.821Z,0
2019-01-14T00:12:14.849Z,0
2019-01-14T00:13:14.866Z,0
2019-01-14T00:14:15.141Z,0
2019-01-14T00:15:14.633Z,0
2019-01-14T00:16:15.178Z,0
2019-01-14T00:17:14.962Z,0
2019-01-14T00:18:15.212Z,0
2019-01-14T00:19:15.244Z,0
2019-01-14T00:20:15.243Z,0
2019-01-14T00:21:15.265Z,0
2019-01-14T00:22:15.026Z,0
2019-01-14T00:23:15.187Z,0
2019-01-14T00:24:15.056Z,0
2019-01-14T00:25:14.817Z,0
2019-01-14T00:26:15.583Z,0
2019-01-14T00:27:15.130Z,0
2019-01-14T00:28:15.127Z,0
2019-01-14T00:29:14.891Z,0
2019-01-14T00:30:14.917Z,0
2019-01-14T00:31:15.442Z,0
2019-01-14T00:32:15.475Z,0
2019-01-14T00:33:14.961Z,0
2019-01-14T00:34:14.992Z,0
2019-01-14T00:35:15.526Z,0
2019-01-14T00:36:22.162Z,0
2019-01-14T00:37:15.554Z,0
2019-01-14T00:38:15.579Z,0
2019-01-14T00:39:15.601Z,0
2019-01-14T00:40:15.359Z,0
2019-01-14T00:41:15.894Z,0
2019-01-14T00:42:15.642Z,0
2019-01-14T00:43:15.144Z,0
2019-01-14T00:44:15.421Z,0
2019-01-14T00:45:15.689Z,0
2019-01-14T00:46:15.211Z,0
2019-01-14T00:47:15.487Z,0
2019-01-14T00:48:15.507Z,0
2019-01-14T00:49:15.773Z,0
2019-01-14T00:50:15.537Z,0
2019-01-14T00:51:15.550Z,0
2019-01-14T00:52:15.316Z,0
2019-01-14T00:53:15.603Z,0
2019-01-14T00:54:16.127Z,0
2019-01-14T00:55:15.875Z,0
2019-01-14T00:56:15.645Z,0
2019-01-14T00:57:15.655Z,0
2019-01-14T00:58:15.939Z,0
2019-01-14T00:59:15.687Z,0
2019-01-14T01:00:15.722Z,0
2019-01-14T01:01:15.746Z,0
2019-01-14T01:02:15.758Z,0
2019-01-14T01:03:15.515Z,0
2019-01-14T01:04:16.293Z,0
2019-01-14T01:05:15.559Z,0
2019-01-14T01:06:16.069Z,0
2019-01-14T01:07:15.853Z,0
2019-01-14T01:08:16.145Z,0
2019-01-14T01:09:15.627Z,0
2019-01-14T01:10:16.156Z,0
2019-01-14T01:11:16.169Z,0
2019-01-14T01:12:15.924Z,0
2019-01-14T01:13:16.214Z,0
2019-01-14T01:14:15.703Z,0
2019-01-14T01:15:16.251Z,0
2019-01-14T01:16:16.006Z,0
2019-01-14T01:17:16.031Z,0
2019-01-14T01:18:16.293Z,0
2019-01-14T01:19:15.791Z,0
2019-01-14T01:20:16.337Z,0
2019-01-14T01:21:16.605Z,0
2019-01-14T01:22:16.363Z,0
2019-01-14T01:23:16.131Z,0
2019-01-14T01:24:16.655Z,0
2019-01-14T01:25:16.695Z,0
2019-01-14T01:26:16.185Z,0
2019-01-14T01:27:15.938Z,0
2019-01-14T01:28:16.215Z,0
2019-01-14T01:29:16.249Z,0
2019-01-14T01:30:16.271Z,0
2019-01-14T01:31:16.286Z,0
2019-01-14T01:32:16.291Z,0
2019-01-14T01:33:16.326Z,0
2019-01-14T01:34:16.332Z,0
2019-01-14T01:35:16.098Z,0
2019-01-14T01:36:16.697Z,0
2019-01-14T01:37:17.590Z,0
2019-01-14T01:38:16.402Z,0
2019-01-14T01:39:16.928Z,0
2019-01-14T01:40:16.683Z,0
2019-01-14T01:41:16.717Z,0
2019-01-14T01:42:16.747Z,0
2019-01-14T01:43:16.766Z,0
2019-01-14T01:44:16.268Z,0
2019-01-14T01:45:17.993Z,0
2019-01-14T01:46:16.284Z,0
2019-01-14T01:47:16.841Z,0
2019-01-14T01:48:16.325Z,0
2019-01-14T01:49:16.663Z,0
2019-01-14T01:50:17.143Z,0
2019-01-14T01:51:16.378Z,0
2019-01-14T01:52:16.913Z,0
2019-01-14T01:53:16.421Z,0
2019-01-14T01:54:16.698Z,0
2019-01-14T01:55:16.976Z,0
2019-01-14T01:56:16.741Z,0
2019-01-14T01:57:17.232Z,0
2019-01-14T01:58:16.777Z,0
2019-01-14T01:59:16.531Z,0
2019-01-14T02:00:16.812Z,0
2019-01-14T02:01:16.819Z,0
2019-01-14T02:02:16.847Z,0
2019-01-14T02:03:16.864Z,0
2019-01-14T02:04:17.143Z,0
2019-01-14T02:05:16.900Z,0
2019-01-14T02:06:16.654Z,0
2019-01-14T02:07:17.198Z,0
2019-01-14T02:08:16.940Z,0
2019-01-14T02:09:16.974Z,0
2019-01-14T02:10:16.976Z,0
2019-01-14T02:11:16.741Z,0
2019-01-14T02:12:17.278Z,0
2019-01-14T02:13:17.288Z,0
2019-01-14T02:14:17.059Z,0
2019-01-14T02:15:17.592Z,0
2019-01-14T02:16:17.093Z,0
2019-01-14T02:17:16.853Z,0
2019-01-14T02:18:17.123Z,0
2019-01-14T02:19:17.150Z,0
2019-01-14T02:20:17.417Z,0
2019-01-14T02:21:17.699Z,0
2019-01-14T02:22:16.935Z,0
2019-01-14T02:23:17.216Z,0
2019-01-14T02:24:17.241Z,0
2019-01-14T02:25:17.250Z,0
2019-01-14T02:26:17.008Z,0
2019-01-14T02:27:17.281Z,0
2019-01-14T02:28:17.054Z,0
2019-01-14T02:29:17.850Z,0
2019-01-14T02:30:17.359Z,0
2019-01-14T02:31:17.376Z,0
2019-01-14T02:32:17.392Z,0
2019-01-14T02:33:17.153Z,0
2019-01-14T02:34:17.947Z,0
2019-01-14T02:35:17.176Z,0
2019-01-14T02:36:17.446Z,0
2019-01-14T02:37:17.739Z,0
2019-01-14T02:38:17.234Z,0
2019-01-14T02:39:17.509Z,0
2019-01-14T02:40:17.798Z,0
2019-01-14T02:41:17.561Z,0
2019-01-14T02:42:17.559Z,0
2019-01-14T02:43:17.592Z,0
2019-01-14T02:44:17.593Z,0
2019-01-14T02:45:17.471Z,0
2019-01-14T02:46:17.951Z,0
2019-01-14T02:47:17.383Z,0
2019-01-14T02:48:17.431Z,0
2019-01-14T02:49:17.940Z,0
2019-01-14T02:50:17.787Z,0
2019-01-14T02:51:17.727Z,0
2019-01-14T02:52:17.764Z,0
2019-01-14T02:53:17.758Z,0
2019-01-14T02:54:17.774Z,0
2019-01-14T02:55:17.540Z,0
2019-01-14T02:56:18.058Z,0
2019-01-14T02:57:17.833Z,0
2019-01-14T02:58:18.115Z,0
2019-01-14T02:59:17.862Z,0
2019-01-14T03:00:18.393Z,0
2019-01-14T03:01:17.892Z,0
2019-01-14T03:02:18.448Z,0
2019-01-14T03:03:18.451Z,0
2019-01-14T03:04:17.961Z,0
2019-01-14T03:05:18.231Z,0
2019-01-14T03:06:18.263Z,0
2019-01-14T03:07:18.021Z,0
2019-01-14T03:08:18.310Z,0
2019-01-14T03:09:17.782Z,0
2019-01-14T03:10:18.332Z,0
2019-01-14T03:11:18.089Z,0
2019-01-14T03:12:17.862Z,0
2019-01-14T03:13:18.638Z,0
2019-01-14T03:14:18.138Z,0
2019-01-14T03:15:17.894Z,0
2019-01-14T03:16:17.907Z,0
2019-01-14T03:17:18.186Z,0
2019-01-14T03:18:17.946Z,0
2019-01-14T03:19:18.632Z,0
2019-01-14T03:20:18.234Z,0
2019-01-14T03:21:18.002Z,0
2019-01-14T03:22:18.296Z,0
2019-01-14T03:23:18.290Z,0
2019-01-14T03:24:18.057Z,0
2019-01-14T03:25:18.874Z,0
2019-01-14T03:26:18.375Z,0
2019-01-14T03:27:18.894Z,0
2019-01-14T03:28:18.122Z,0
2019-01-14T03:29:18.421Z,0
2019-01-14T03:30:18.766Z,0
2019-01-14T03:31:18.730Z,0
2019-01-14T03:32:18.733Z,0
2019-01-14T03:33:18.511Z,0
2019-01-14T03:34:18.511Z,0
2019-01-14T03:35:18.502Z,0
2019-01-14T03:36:18.801Z,0
2019-01-14T03:37:18.288Z,0
2019-01-14T03:38:18.290Z,0
2019-01-14T03:39:18.831Z,0
2019-01-14T03:40:18.601Z,0
2019-01-14T03:41:18.612Z,0
2019-01-14T03:42:18.917Z,0
2019-01-14T03:43:18.661Z,0
2019-01-14T03:44:18.662Z,0
2019-01-14T03:45:18.959Z,0
2019-01-14T03:46:18.443Z,0
2019-01-14T03:47:18.724Z,0
2019-01-14T03:48:19.341Z,0
2019-01-14T03:49:19.026Z,0
2019-01-14T03:50:18.563Z,0
2019-01-14T03:51:19.381Z,0
2019-01-14T03:52:19.070Z,0
2019-01-14T03:53:18.824Z,0
2019-01-14T03:54:19.112Z,0
2019-01-14T03:55:19.108Z,0
2019-01-14T03:56:18.622Z,0
2019-01-14T03:57:18.914Z,0
2019-01-14T03:58:18.916Z,0
2019-01-14T03:59:19.454Z,0
2019-01-14T04:00:19.200Z,0
2019-01-14T04:01:18.978Z,0
2019-01-14T04:02:18.734Z,0
2019-01-14T04:03:19.517Z,0
2019-01-14T04:04:19.280Z,0
2019-01-14T04:05:19.316Z,0
2019-01-14T04:06:19.066Z,0
2019-01-14T04:07:21.242Z,0
2019-01-14T04:08:18.836Z,0
2019-01-14T04:09:19.786Z,0
2019-01-14T04:10:19.403Z,0
2019-01-14T04:11:18.891Z,0
2019-01-14T04:12:19.437Z,0
2019-01-14T04:13:19.180Z,0
2019-01-14T04:14:19.203Z,0
2019-01-14T04:15:19.501Z,0
2019-01-14T04:16:19.238Z,0
2019-01-14T04:17:19.251Z,0
2019-01-14T04:18:19.017Z,0
2019-01-14T04:19:19.558Z,0
2019-01-14T04:20:19.300Z,0
2019-01-14T04:21:19.589Z,0
2019-01-14T04:22:19.606Z,0
2019-01-14T04:23:19.390Z,0
2019-01-14T04:24:19.123Z,0
2019-01-14T04:25:19.464Z,0
2019-01-14T04:26:19.655Z,0
2019-01-14T04:27:19.447Z,0
2019-01-14T04:28:19.445Z,0
2019-01-14T04:29:19.471Z,0
2019-01-14T04:30:19.499Z,0
2019-01-14T04:31:20.510Z,0
2019-01-14T04:32:19.526Z,0
2019-01-14T04:33:19.541Z,0
2019-01-14T04:34:19.552Z,0
2019-01-14T04:35:19.574Z,0
2019-01-14T04:36:19.600Z,0
2019-01-14T04:37:25.929Z,0
2019-01-14T04:38:19.352Z,0
2019-01-14T04:39:19.843Z,0
2019-01-14T04:40:19.433Z,0
2019-01-14T04:41:19.925Z,0
2019-01-14T04:42:19.956Z,0
2019-01-14T04:43:19.971Z,0
2019-01-14T04:44:20.000Z,0
2019-01-14T04:45:20.309Z,0
2019-01-14T04:46:19.756Z,0
2019-01-14T04:47:20.036Z,0
2019-01-14T04:48:20.328Z,0
2019-01-14T04:49:19.894Z,0
2019-01-14T04:50:20.352Z,0
2019-01-14T04:51:20.112Z,0
2019-01-14T04:52:20.134Z,0
2019-01-14T04:53:19.881Z,0
2019-01-14T04:54:19.899Z,0
2019-01-14T04:55:19.928Z,0
2019-01-14T04:56:20.212Z,0
2019-01-14T04:57:19.968Z,0
2019-01-14T04:58:19.965Z,0
2019-01-14T04:59:20.016Z,0
2019-01-14T05:00:20.261Z,0
2019-01-14T05:01:20.278Z,0
2019-01-14T05:02:20.305Z,0
2019-01-14T05:03:19.833Z,0
2019-01-14T05:04:20.324Z,0
2019-01-14T05:05:19.905Z,0
2019-01-14T05:06:20.364Z,0
2019-01-14T05:07:20.148Z,0
2019-01-14T05:08:20.408Z,0
2019-01-14T05:09:20.161Z,0
2019-01-14T05:10:19.934Z,0
2019-01-14T05:11:20.473Z,0
2019-01-14T05:12:20.488Z,0
2019-01-14T05:13:20.234Z,0
2019-01-14T05:14:19.987Z,0
2019-01-14T05:15:20.275Z,0
2019-01-14T05:16:20.306Z,0
2019-01-14T05:17:20.316Z,0
2019-01-14T05:18:20.062Z,0
2019-01-14T05:19:20.653Z,0
2019-01-14T05:20:20.375Z,0
2019-01-14T05:21:20.657Z,0
2019-01-14T05:22:20.902Z,0
2019-01-14T05:23:20.144Z,0
2019-01-14T05:24:20.441Z,0
2019-01-14T05:25:20.700Z,0
2019-01-14T05:26:20.488Z,0
2019-01-14T05:27:20.222Z,0
2019-01-14T05:28:20.773Z,0
2019-01-14T05:29:20.786Z,0
2019-01-14T05:30:20.530Z,0
2019-01-14T05:31:20.303Z,0
2019-01-14T05:32:20.843Z,0
2019-01-14T05:33:20.593Z,0
2019-01-14T05:34:20.867Z,0
2019-01-14T05:35:20.888Z,0
2019-01-14T05:36:20.639Z,0
2019-01-14T05:37:20.671Z,0
2019-01-14T05:38:20.932Z,0
2019-01-14T05:39:20.687Z,0
2019-01-14T05:40:20.710Z,0
2019-01-14T05:41:21.003Z,0
2019-01-14T05:42:21.020Z,0
2019-01-14T05:43:20.775Z,0
2019-01-14T05:44:20.804Z,0
2019-01-14T05:45:20.791Z,0
2019-01-14T05:46:21.096Z,0
2019-01-14T05:47:20.569Z,0
2019-01-14T05:48:20.589Z,0
2019-01-14T05:49:21.151Z,0
2019-01-14T05:50:21.166Z,0
2019-01-14T05:51:21.151Z,0
2019-01-14T05:52:20.665Z,0
2019-01-14T05:53:21.208Z,0
2019-01-14T05:54:21.204Z,0
2019-01-14T05:55:21.237Z,0
2019-01-14T05:56:20.992Z,0
2019-01-14T05:57:21.007Z,0
2019-01-14T05:58:21.279Z,0
2019-01-14T05:59:21.041Z,0
2019-01-14T06:00:22.538Z,0
2019-01-14T06:01:21.079Z,0
2019-01-14T06:02:21.351Z,0
2019-01-14T06:03:21.630Z,0
2019-01-14T06:04:21.384Z,0
2019-01-14T06:05:21.140Z,0
2019-01-14T06:06:21.412Z,0
2019-01-14T06:07:21.707Z,0
2019-01-14T06:08:22.627Z,0
2019-01-14T06:09:21.219Z,0
2019-01-14T06:10:21.232Z,0
2019-01-14T06:11:21.008Z,0
2019-01-14T06:12:21.018Z,0
2019-01-14T06:13:21.032Z,0
2019-01-14T06:14:21.302Z,0
2019-01-14T06:15:21.333Z,0
2019-01-14T06:16:23.130Z,0
2019-01-14T06:17:21.371Z,0
2019-01-14T06:18:21.373Z,0
2019-01-14T06:19:21.649Z,0
2019-01-14T06:20:21.414Z,0
2019-01-14T06:21:21.701Z,0
2019-01-14T06:22:21.705Z,0
2019-01-14T06:23:21.190Z,0
2019-01-14T06:24:21.742Z,0
2019-01-14T06:25:21.814Z,0
2019-01-14T06:26:21.279Z,0
2019-01-14T06:27:21.545Z,0
2019-01-14T06:28:21.539Z,0
2019-01-14T06:29:21.310Z,0
2019-01-14T06:30:21.832Z,0
2019-01-14T06:31:22.167Z,0
2019-01-14T06:32:21.614Z,0
2019-01-14T06:33:21.385Z,0
2019-01-14T06:34:22.163Z,0
2019-01-14T06:35:21.732Z,0
2019-01-14T06:36:21.688Z,0
2019-01-14T06:37:21.964Z,0
2019-01-14T06:38:21.715Z,0
2019-01-14T06:39:21.984Z,0
2019-01-14T06:40:21.761Z,0
2019-01-14T06:41:21.501Z,0
2019-01-14T06:42:21.530Z,0
2019-01-14T06:43:21.817Z,0
2019-01-14T06:44:21.828Z,0
2019-01-14T06:45:21.839Z,0
2019-01-14T06:46:22.106Z,0
2019-01-14T06:47:21.872Z,0
2019-01-14T06:48:22.153Z,0
2019-01-14T06:49:22.168Z,0
2019-01-14T06:50:22.181Z,0
2019-01-14T06:51:22.242Z,0
2019-01-14T06:52:21.954Z,0
2019-01-14T06:53:22.251Z,0
2019-01-14T06:54:22.258Z,0
2019-01-14T06:55:22.024Z,0
2019-01-14T06:56:21.776Z,0
2019-01-14T06:57:22.036Z,0
2019-01-14T06:58:21.812Z,0
2019-01-14T06:59:21.841Z,0
2019-01-14T07:00:21.851Z,4
2019-01-14T07:01:21.865Z,4
2019-01-14T07:02:22.185Z,4
2019-01-14T07:03:21.893Z,0
2019-01-14T07:04:21.904Z,4
2019-01-14T07:05:22.433Z,4
2019-01-14T07:06:22.436Z,4
2019-01-14T07:07:22.741Z,0
2019-01-14T07:08:21.974Z,4
2019-01-14T07:09:22.245Z,4
2019-01-14T07:10:22.266Z,4
2019-01-14T07:11:22.540Z,8
2019-01-14T07:12:22.560Z,8
2019-01-14T07:13:22.315Z,8
2019-01-14T07:14:22.679Z,12
2019-01-14T07:15:22.367Z,16
2019-01-14T07:16:22.379Z,12
2019-01-14T07:17:22.653Z,16
2019-01-14T07:18:22.411Z,20
2019-01-14T07:19:22.430Z,20
2019-01-14T07:20:22.453Z,20
2019-01-14T07:21:22.460Z,20
2019-01-14T07:22:22.475Z,20
2019-01-14T07:23:22.236Z,24
2019-01-14T07:24:22.242Z,24
2019-01-14T07:25:22.795Z,28
2019-01-14T07:26:22.548Z,24
2019-01-14T07:27:22.815Z,20
2019-01-14T07:28:22.343Z,24
2019-01-14T07:29:22.855Z,24
2019-01-14T07:30:22.363Z,28
2019-01-14T07:31:22.890Z,28
2019-01-14T07:32:22.649Z,32
2019-01-14T07:33:22.723Z,36
2019-01-14T07:34:22.686Z,36
2019-01-14T07:35:22.709Z,36
2019-01-14T07:36:22.971Z,32
2019-01-14T07:37:23.268Z,36
2019-01-14T07:38:22.746Z,52
2019-01-14T07:39:23.038Z,40
2019-01-14T07:40:22.807Z,40
2019-01-14T07:41:22.543Z,40
2019-01-14T07:42:22.824Z,56
2019-01-14T07:43:22.821Z,40
2019-01-14T07:44:23.129Z,32
2019-01-14T07:45:23.132Z,36
2019-01-14T07:46:23.137Z,36
2019-01-14T07:47:22.909Z,40
2019-01-14T07:48:22.664Z,36
2019-01-14T07:49:22.937Z,32
2019-01-14T07:50:22.952Z,40
2019-01-14T07:51:22.969Z,52
2019-01-14T07:52:23.241Z,68
2019-01-14T07:53:22.993Z,72
2019-01-14T07:54:23.280Z,64
2019-01-14T07:55:23.293Z,68
2019-01-14T07:56:23.317Z,76
2019-01-14T07:57:24.526Z,68
2019-01-14T07:58:23.080Z,64
2019-01-14T07:59:23.357Z,48
2019-01-14T08:00:23.132Z,44
2019-01-14T08:01:23.397Z,36
2019-01-14T08:02:23.176Z,48
2019-01-14T08:03:23.164Z,52
2019-01-14T08:04:23.442Z,60
2019-01-14T08:05:22.946Z,80
2019-01-14T08:06:23.482Z,92
2019-01-14T08:07:23.245Z,92
2019-01-14T08:08:23.250Z,80
2019-01-14T08:09:23.022Z,68
2019-01-14T08:10:23.036Z,44
2019-01-14T08:11:23.046Z,32
2019-01-14T08:12:23.350Z,24
2019-01-14T08:13:23.342Z,28
2019-01-14T08:14:23.366Z,28
2019-01-14T08:15:23.656Z,24
2019-01-14T08:16:23.158Z,28
2019-01-14T08:17:23.147Z,32
2019-01-14T08:18:23.686Z,40
2019-01-14T08:19:23.648Z,60
2019-01-14T08:20:23.203Z,104
2019-01-14T08:21:23.748Z,164
2019-01-14T08:22:23.238Z,228
2019-01-14T08:23:23.518Z,272
2019-01-14T08:24:23.806Z,308
2019-01-14T08:25:24.066Z,336
2019-01-14T08:26:23.310Z,344
2019-01-14T08:27:23.850Z,368
2019-01-14T08:28:23.851Z,368
2019-01-14T08:29:23.885Z,384
2019-01-14T08:30:23.634Z,412
2019-01-14T08:31:23.385Z,420
2019-01-14T08:32:23.928Z,424
2019-01-14T08:33:23.705Z,420
2019-01-14T08:34:23.518Z,364
2019-01-14T08:35:23.989Z,380
2019-01-14T08:36:23.986Z,376
2019-01-14T08:37:23.756Z,404
2019-01-14T08:38:28.491Z,404
2019-01-14T08:39:23.803Z,432
2019-01-14T08:40:23.553Z,380
2019-01-14T08:41:23.825Z,400
2019-01-14T08:42:23.827Z,436
2019-01-14T08:43:23.599Z,376
2019-01-14T08:44:24.127Z,396
2019-01-14T08:45:24.163Z,424
2019-01-14T08:46:23.917Z,408
2019-01-14T08:47:24.455Z,340
2019-01-14T08:48:23.678Z,304
2019-01-14T08:49:23.963Z,280
2019-01-14T08:50:24.231Z,284
2019-01-14T08:51:23.720Z,288
2019-01-14T08:52:24.021Z,304
2019-01-14T08:53:24.027Z,280
2019-01-14T08:54:23.774Z,264
2019-01-14T08:55:24.319Z,216
2019-01-14T08:56:24.338Z,228
2019-01-14T08:57:24.099Z,248
2019-01-14T08:58:24.104Z,340
2019-01-14T08:59:24.375Z,236
2019-01-14T09:00:24.140Z,188
2019-01-14T09:01:24.685Z,208
2019-01-14T09:02:24.455Z,264
2019-01-14T09:03:23.925Z,284
2019-01-14T09:04:36.646Z,496
2019-01-14T09:05:24.757Z,308
2019-01-14T09:06:24.244Z,292
2019-01-14T09:07:24.520Z,228
2019-01-14T09:08:30.779Z,264
2019-01-14T09:09:24.557Z,448
2019-01-14T09:10:24.592Z,580
2019-01-14T09:11:24.342Z,424
2019-01-14T09:12:24.096Z,528
2019-01-14T09:13:24.620Z,600
2019-01-14T09:14:24.119Z,636
2019-01-14T09:15:24.135Z,580
2019-01-14T09:16:24.809Z,460
2019-01-14T09:17:24.701Z,452
2019-01-14T09:18:24.444Z,324
2019-01-14T09:19:24.731Z,348
2019-01-14T09:20:24.474Z,484
2019-01-14T09:21:24.512Z,452
2019-01-14T09:22:24.503Z,356
2019-01-14T09:23:24.262Z,348
2019-01-14T09:24:24.561Z,520
2019-01-14T09:25:24.817Z,540
2019-01-14T09:26:24.579Z,480
2019-01-14T09:27:24.851Z,500
2019-01-14T09:28:24.869Z,500
2019-01-14T09:29:24.626Z,476
2019-01-14T09:30:24.641Z,424
2019-01-14T09:31:24.407Z,428
2019-01-14T09:32:24.675Z,408
2019-01-14T09:33:25.212Z,428
2019-01-14T09:34:24.720Z,416
2019-01-14T09:35:24.478Z,456
2019-01-14T09:36:24.802Z,492
2019-01-14T09:37:25.091Z,436
2019-01-14T09:38:25.038Z,384
2019-01-14T09:39:24.808Z,400
2019-01-14T09:40:24.822Z,460
2019-01-14T09:41:24.851Z,520
2019-01-14T09:42:27.915Z,788
2019-01-14T09:43:24.612Z,696
2019-01-14T09:44:24.628Z,560
2019-01-14T09:45:24.655Z,572
2019-01-14T09:46:25.181Z,556
2019-01-14T09:47:25.455Z,592
2019-01-14T09:48:24.950Z,680
2019-01-14T09:49:24.972Z,856
2019-01-14T09:50:24.990Z,732
2019-01-14T09:51:25.011Z,860
2019-01-14T09:52:25.301Z,1076
2019-01-14T09:53:25.305Z,764
2019-01-14T09:54:24.800Z,748
2019-01-14T09:55:25.076Z,592
2019-01-14T09:56:25.088Z,376
2019-01-14T09:57:25.101Z,492
2019-01-14T09:58:24.861Z,388
2019-01-14T09:59:25.160Z,308
2019-01-14T10:00:24.895Z,300
2019-01-14T10:01:24.911Z,244
2019-01-14T10:02:24.935Z,308
2019-01-14T10:03:25.218Z,360
2019-01-14T10:04:25.235Z,340
2019-01-14T10:05:25.526Z,300
2019-01-14T10:06:25.274Z,272
2019-01-14T10:07:25.799Z,356
2019-01-14T10:08:25.312Z,388
2019-01-14T10:09:25.365Z,428
2019-01-14T10:10:25.845Z,756
2019-01-14T10:11:25.083Z,912
2019-01-14T10:12:25.620Z,608
2019-01-14T10:13:25.897Z,360
2019-01-14T10:14:25.141Z,308
2019-01-14T10:15:25.253Z,356
2019-01-14T10:16:25.703Z,384
2019-01-14T10:17:25.453Z,516
2019-01-14T10:18:25.792Z,680
2019-01-14T10:19:25.758Z,748
2019-01-14T10:20:26.008Z,644
2019-01-14T10:21:25.576Z,772
2019-01-14T10:22:25.927Z,916
2019-01-14T10:23:25.570Z,796
2019-01-14T10:24:25.316Z,716
2019-01-14T10:25:25.325Z,812
2019-01-14T10:26:25.869Z,896
2019-01-14T10:27:25.887Z,568
2019-01-14T10:28:25.369Z,440
2019-01-14T10:29:25.638Z,444
2019-01-14T10:30:25.667Z,480
2019-01-14T10:31:26.807Z,432
2019-01-14T10:32:25.969Z,380
2019-01-14T10:33:25.734Z,416
2019-01-14T10:34:25.747Z,636
2019-01-14T10:35:25.755Z,1028
2019-01-14T10:36:26.333Z,968
2019-01-14T10:37:29.566Z,964
2019-01-14T10:38:25.554Z,1152
2019-01-14T10:39:26.072Z,1056
2019-01-14T10:40:25.843Z,808
2019-01-14T10:41:25.899Z,640
2019-01-14T10:42:26.395Z,664
2019-01-14T10:43:25.932Z,732
2019-01-14T10:44:25.912Z,852
2019-01-14T10:45:25.926Z,756
2019-01-14T10:46:25.677Z,668
2019-01-14T10:47:25.697Z,652
2019-01-14T10:48:25.722Z,632
2019-01-14T10:49:25.988Z,680
2019-01-14T10:50:26.001Z,840
2019-01-14T10:51:25.786Z,832
2019-01-14T10:52:25.787Z,912
2019-01-14T10:53:26.067Z,936
2019-01-14T10:54:26.354Z,776
2019-01-14T10:55:25.844Z,728
2019-01-14T10:56:26.156Z,736
2019-01-14T10:57:26.723Z,972
2019-01-14T10:58:26.138Z,1204
2019-01-14T10:59:26.424Z,912
2019-01-14T11:00:26.190Z,780
2019-01-14T11:01:26.189Z,736
2019-01-14T11:02:25.966Z,1000
2019-01-14T11:03:25.975Z,860
2019-01-14T11:04:25.998Z,892
2019-01-14T11:05:26.279Z,796
2019-01-14T11:06:26.809Z,948
2019-01-14T11:07:26.304Z,848
2019-01-14T11:08:26.311Z,784
2019-01-14T11:09:26.593Z,824
2019-01-14T11:10:26.374Z,908
2019-01-14T11:11:26.625Z,896
2019-01-14T11:12:26.646Z,892
2019-01-14T11:13:26.410Z,824
2019-01-14T11:14:26.167Z,748
2019-01-14T11:15:26.449Z,680
2019-01-14T11:16:26.983Z,664
2019-01-14T11:17:26.722Z,692
2019-01-14T11:18:26.757Z,736
2019-01-14T11:19:26.772Z,780
2019-01-14T11:20:26.540Z,900
2019-01-14T11:21:26.544Z,1016
2019-01-14T11:22:26.837Z,1100
2019-01-14T11:23:26.853Z,1056
2019-01-14T11:24:26.859Z,792
2019-01-14T11:25:26.603Z,788
2019-01-14T11:26:27.141Z,800
2019-01-14T11:27:26.907Z,840
2019-01-14T11:28:26.660Z,812
2019-01-14T11:29:26.944Z,988
2019-01-14T11:30:26.446Z,1092
2019-01-14T11:31:27.245Z,860
2019-01-14T11:32:26.480Z,672
2019-01-14T11:33:27.053Z,656
2019-01-14T11:34:26.830Z,560
2019-01-14T11:35:27.052Z,436
2019-01-14T11:36:26.803Z,588
2019-01-14T11:37:26.813Z,920
2019-01-14T11:38:26.830Z,912
2019-01-14T11:39:26.865Z,744
2019-01-14T11:40:26.871Z,540
2019-01-14T11:41:26.888Z,444
2019-01-14T11:42:27.448Z,448
2019-01-14T11:43:26.924Z,404
2019-01-14T11:44:27.460Z,456
2019-01-14T11:45:27.473Z,808
2019-01-14T11:46:27.241Z,920
2019-01-14T11:47:27.252Z,916
2019-01-14T11:48:27.049Z,648
2019-01-14T11:49:27.284Z,376
2019-01-14T11:50:26.791Z,356
2019-01-14T11:51:27.310Z,496
2019-01-14T11:52:27.348Z,608
2019-01-14T11:53:27.365Z,560
2019-01-14T11:54:27.135Z,340
2019-01-14T11:55:27.156Z,436
2019-01-14T11:56:27.156Z,716
2019-01-14T11:57:26.911Z,816
2019-01-14T11:58:27.457Z,724
2019-01-14T11:59:27.469Z,512
2019-01-14T12:00:27.245Z,552
2019-01-14T12:01:27.240Z,572
2019-01-14T12:02:27.618Z,560
2019-01-14T12:03:27.018Z,560
2019-01-14T12:04:27.560Z,528
2019-01-14T12:05:27.317Z,688
2019-01-14T12:06:27.319Z,796
2019-01-14T12:07:27.096Z,672
2019-01-14T12:08:27.670Z,584
2019-01-14T12:09:27.109Z,496
2019-01-14T12:10:27.462Z,556
2019-01-14T12:11:27.419Z,680
2019-01-14T12:12:27.959Z,560
2019-01-14T12:13:27.467Z,460
2019-01-14T12:14:27.730Z,472
2019-01-14T12:15:27.739Z,644
2019-01-14T12:16:27.494Z,964
2019-01-14T12:17:27.832Z,1048
2019-01-14T12:18:27.282Z,864
2019-01-14T12:19:27.350Z,684
2019-01-14T12:20:27.880Z,620
2019-01-14T12:21:27.845Z,500
2019-01-14T12:22:27.654Z,480
2019-01-14T12:23:27.884Z,424
2019-01-14T12:24:27.651Z,372
2019-01-14T12:25:27.682Z,316
2019-01-14T12:26:27.927Z,328
2019-01-14T12:27:27.943Z,332
2019-01-14T12:28:27.976Z,276
2019-01-14T12:29:27.723Z,256
2019-01-14T12:30:27.755Z,280
2019-01-14T12:31:27.744Z,276
2019-01-14T12:32:27.768Z,240
2019-01-14T12:33:27.806Z,220
2019-01-14T12:34:28.067Z,224
2019-01-14T12:35:27.565Z,180
2019-01-14T12:36:27.844Z,188
2019-01-14T12:37:28.121Z,240
2019-01-14T12:38:28.129Z,316
2019-01-14T12:39:28.164Z,388
2019-01-14T12:40:29.574Z,440
2019-01-14T12:41:27.931Z,484
2019-01-14T12:42:28.522Z,520
2019-01-14T12:43:28.217Z,528
2019-01-14T12:44:27.993Z,500
2019-01-14T12:45:27.752Z,500
2019-01-14T12:46:27.771Z,500
2019-01-14T12:47:28.040Z,504
2019-01-14T12:48:29.676Z,508
2019-01-14T12:49:28.093Z,516
2019-01-14T12:50:28.090Z,528
2019-01-14T12:51:28.102Z,548
2019-01-14T12:52:28.370Z,592
2019-01-14T12:53:28.416Z,716
2019-01-14T12:54:28.166Z,944
2019-01-14T12:55:28.173Z,1104
2019-01-14T12:56:28.184Z,1008
2019-01-14T12:57:28.202Z,816
2019-01-14T12:58:28.268Z,808
2019-01-14T12:59:28.245Z,772
2019-01-14T13:00:28.257Z,600
2019-01-14T13:01:28.546Z,608
2019-01-14T13:02:28.544Z,612
2019-01-14T13:03:28.823Z,900
2019-01-14T13:04:28.588Z,1348
2019-01-14T13:05:28.347Z,1036
2019-01-14T13:06:28.094Z,688
2019-01-14T13:07:28.648Z,980
2019-01-14T13:08:28.469Z,1520
2019-01-14T13:09:33.286Z,1520
2019-01-14T13:10:28.166Z,1064
2019-01-14T13:11:30.319Z,956
2019-01-14T13:12:28.462Z,988
2019-01-14T13:13:28.485Z,996
2019-01-14T13:14:28.755Z,936
2019-01-14T13:15:28.534Z,832
2019-01-14T13:16:28.800Z,908
2019-01-14T13:17:28.813Z,968
2019-01-14T13:18:28.562Z,960
2019-01-14T13:19:28.590Z,908
2019-01-14T13:20:28.607Z,708
2019-01-14T13:21:28.623Z,584
2019-01-14T13:22:29.145Z,440
2019-01-14T13:23:32.226Z,316
2019-01-14T13:24:28.684Z,256
2019-01-14T13:25:28.428Z,260
2019-01-14T13:26:28.970Z,296
2019-01-14T13:27:28.722Z,356
2019-01-14T13:28:28.752Z,348
2019-01-14T13:29:28.767Z,384
2019-01-14T13:30:29.029Z,516
2019-01-14T13:31:28.553Z,632
2019-01-14T13:32:28.812Z,776
2019-01-14T13:33:28.831Z,700
2019-01-14T13:34:28.855Z,652
2019-01-14T13:35:29.195Z,464
2019-01-14T13:36:28.876Z,480
2019-01-14T13:37:28.641Z,500
2019-01-14T13:38:29.240Z,536
2019-01-14T13:39:36.318Z,468
2019-01-14T13:40:29.475Z,476
2019-01-14T13:41:28.958Z,476
2019-01-14T13:42:29.273Z,484
2019-01-14T13:43:28.988Z,524
2019-01-14T13:44:29.018Z,556
2019-01-14T13:45:29.025Z,508
2019-01-14T13:46:32.988Z,476
2019-01-14T13:47:28.806Z,512
2019-01-14T13:48:29.084Z,460
2019-01-14T13:49:29.624Z,456
2019-01-14T13:50:28.869Z,484
2019-01-14T13:51:29.406Z,540
2019-01-14T13:52:30.273Z,596
2019-01-14T13:53:28.906Z,844
2019-01-14T13:54:29.715Z,860
2019-01-14T13:55:28.952Z,684
2019-01-14T13:56:29.501Z,552
2019-01-14T13:57:29.236Z,500
2019-01-14T13:58:29.562Z,536
2019-01-14T13:59:29.286Z,568
2019-01-14T14:00:29.301Z,620
2019-01-14T14:01:29.306Z,548
2019-01-14T14:02:29.067Z,740
2019-01-14T14:03:29.356Z,496
2019-01-14T14:04:29.355Z,512
2019-01-14T14:05:29.126Z,552
2019-01-14T14:06:29.675Z,552
2019-01-14T14:07:29.918Z,776
2019-01-14T14:08:29.424Z,664
2019-01-14T14:09:29.450Z,848
2019-01-14T14:10:29.464Z,616
2019-01-14T14:11:29.999Z,488
2019-01-14T14:12:29.226Z,464
2019-01-14T14:13:29.769Z,472
2019-01-14T14:14:30.042Z,516
2019-01-14T14:15:29.284Z,500
2019-01-14T14:16:29.568Z,624
2019-01-14T14:17:29.334Z,560